sensor_id;sensor_type;location;lat;lon;timestamp;P1;durP1;ratioP1;P2;durP2;ratioP2
17347;SDS011;8791;50.876;4.342;2022-07-06T00:00:15;6.87;;;2.53;;
17347;SDS011;8791;50.876;4.342;2022-07-06T00:02:42;4.07;;;1.95;;
17347;SDS011;8791;50.876;4.342;2022-07-06T00:05:09;8.27;;;2.47;;
17347;SDS011;8791;50.876;4.342;2022-07-06T00:07:36;10.68;;;2.50;;
17347;SDS011;8791;50.876;4.342;2022-07-06T00:10:05;6.22;;;2.80;;
17347;SDS011;8791;50.876;4.342;2022-07-06T00:12:32;6.53;;;2.77;;
17347;SDS011;8791;50.876;4.342;2022-07-06T00:14:59;6.23;;;2.80;;
17347;SDS011;8791;50.876;4.342;2022-07-06T00:17:26;6.47;;;2.80;;
17347;SDS011;8791;50.876;4.342;2022-07-06T00:19:53;8.60;;;2.50;;
17347;SDS011;8791;50.876;4.342;2022-07-06T00:22:20;3.67;;;2.23;;
17347;SDS011;8791;50.876;4.342;2022-07-06T00:24:47;9.07;;;2.60;;
17347;SDS011;8791;50.876;4.342;2022-07-06T00:27:15;7.67;;;2.23;;
17347;SDS011;8791;50.876;4.342;2022-07-06T00:29:42;6.10;;;2.53;;
17347;SDS011;8791;50.876;4.342;2022-07-06T00:32:09;4.90;;;2.63;;
17347;SDS011;8791;50.876;4.342;2022-07-06T00:34:36;4.70;;;2.53;;
17347;SDS011;8791;50.876;4.342;2022-07-06T00:37:04;3.87;;;2.33;;
17347;SDS011;8791;50.876;4.342;2022-07-06T00:39:32;7.67;;;2.90;;
17347;SDS011;8791;50.876;4.342;2022-07-06T00:41:59;5.73;;;2.40;;
17347;SDS011;8791;50.876;4.342;2022-07-06T00:44:27;4.07;;;2.60;;
17347;SDS011;8791;50.876;4.342;2022-07-06T00:46:54;3.67;;;2.70;;
17347;SDS011;8791;50.876;4.342;2022-07-06T00:49:21;3.90;;;2.50;;
17347;SDS011;8791;50.876;4.342;2022-07-06T00:52:05;7.10;;;2.90;;
17347;SDS011;8791;50.876;4.342;2022-07-06T00:54:33;8.50;;;3.27;;
17347;SDS011;8791;50.876;4.342;2022-07-06T00:57:02;3.30;;;2.90;;
17347;SDS011;8791;50.876;4.342;2022-07-06T00:59:30;9.90;;;3.00;;
17347;SDS011;8791;50.876;4.342;2022-07-06T01:01:57;9.43;;;2.77;;
17347;SDS011;8791;50.876;4.342;2022-07-06T01:04:24;6.67;;;3.00;;
17347;SDS011;8791;50.876;4.342;2022-07-06T01:06:51;8.93;;;3.00;;
17347;SDS011;8791;50.876;4.342;2022-07-06T01:09:19;6.23;;;3.33;;
17347;SDS011;8791;50.876;4.342;2022-07-06T01:11:46;6.77;;;3.27;;
17347;SDS011;8791;50.876;4.342;2022-07-06T01:14:13;4.73;;;2.80;;
17347;SDS011;8791;50.876;4.342;2022-07-06T01:16:42;5.67;;;2.80;;
17347;SDS011;8791;50.876;4.342;2022-07-06T01:19:09;14.57;;;3.07;;
17347;SDS011;8791;50.876;4.342;2022-07-06T01:21:38;9.07;;;2.67;;
17347;SDS011;8791;50.876;4.342;2022-07-06T01:24:06;4.67;;;2.83;;
17347;SDS011;8791;50.876;4.342;2022-07-06T01:26:33;8.30;;;2.67;;
17347;SDS011;8791;50.876;4.342;2022-07-06T01:29:00;4.93;;;2.80;;
17347;SDS011;8791;50.876;4.342;2022-07-06T01:31:27;6.47;;;2.67;;
17347;SDS011;8791;50.876;4.342;2022-07-06T01:33:54;9.63;;;3.07;;
17347;SDS011;8791;50.876;4.342;2022-07-06T01:36:23;9.13;;;3.13;;
17347;SDS011;8791;50.876;4.342;2022-07-06T01:38:51;7.60;;;2.83;;
17347;SDS011;8791;50.876;4.342;2022-07-06T01:41:19;6.00;;;2.63;;
17347;SDS011;8791;50.876;4.342;2022-07-06T01:43:47;4.80;;;2.70;;
17347;SDS011;8791;50.876;4.342;2022-07-06T01:46:14;4.10;;;2.83;;
17347;SDS011;8791;50.876;4.342;2022-07-06T01:48:41;5.97;;;2.83;;
17347;SDS011;8791;50.876;4.342;2022-07-06T01:51:08;8.30;;;3.13;;
17347;SDS011;8791;50.876;4.342;2022-07-06T01:53:36;6.37;;;2.93;;
17347;SDS011;8791;50.876;4.342;2022-07-06T01:56:05;7.20;;;3.17;;
17347;SDS011;8791;50.876;4.342;2022-07-06T01:58:33;9.90;;;3.10;;
17347;SDS011;8791;50.876;4.342;2022-07-06T02:01:00;7.30;;;2.70;;
17347;SDS011;8791;50.876;4.342;2022-07-06T02:03:32;7.93;;;2.97;;
17347;SDS011;8791;50.876;4.342;2022-07-06T02:05:59;3.33;;;3.00;;
17347;SDS011;8791;50.876;4.342;2022-07-06T02:08:26;10.17;;;3.57;;
17347;SDS011;8791;50.876;4.342;2022-07-06T02:10:53;12.07;;;3.43;;
17347;SDS011;8791;50.876;4.342;2022-07-06T02:13:21;6.77;;;2.97;;
17347;SDS011;8791;50.876;4.342;2022-07-06T02:15:49;7.60;;;3.17;;
17347;SDS011;8791;50.876;4.342;2022-07-06T02:18:16;8.60;;;2.97;;
17347;SDS011;8791;50.876;4.342;2022-07-06T02:20:43;9.40;;;3.10;;
17347;SDS011;8791;50.876;4.342;2022-07-06T02:23:10;5.23;;;3.37;;
17347;SDS011;8791;50.876;4.342;2022-07-06T02:25:36;6.73;;;3.13;;
17347;SDS011;8791;50.876;4.342;2022-07-06T02:28:04;6.50;;;3.00;;
17347;SDS011;8791;50.876;4.342;2022-07-06T02:30:32;5.97;;;3.00;;
17347;SDS011;8791;50.876;4.342;2022-07-06T02:32:59;10.83;;;3.33;;
17347;SDS011;8791;50.876;4.342;2022-07-06T02:35:26;4.90;;;2.90;;
17347;SDS011;8791;50.876;4.342;2022-07-06T02:37:53;8.57;;;3.20;;
17347;SDS011;8791;50.876;4.342;2022-07-06T02:40:20;5.43;;;3.63;;
17347;SDS011;8791;50.876;4.342;2022-07-06T02:42:47;6.90;;;2.90;;
17347;SDS011;8791;50.876;4.342;2022-07-06T02:45:14;10.17;;;3.23;;
17347;SDS011;8791;50.876;4.342;2022-07-06T02:47:43;8.73;;;3.77;;
17347;SDS011;8791;50.876;4.342;2022-07-06T02:50:10;5.53;;;3.30;;
17347;SDS011;8791;50.876;4.342;2022-07-06T02:52:36;4.73;;;2.90;;
17347;SDS011;8791;50.876;4.342;2022-07-06T02:55:04;4.60;;;3.30;;
17347;SDS011;8791;50.876;4.342;2022-07-06T02:57:31;13.10;;;3.60;;
17347;SDS011;8791;50.876;4.342;2022-07-06T02:59:58;9.03;;;3.53;;
17347;SDS011;8791;50.876;4.342;2022-07-06T03:02:25;7.57;;;3.17;;
17347;SDS011;8791;50.876;4.342;2022-07-06T03:04:53;10.83;;;3.40;;
17347;SDS011;8791;50.876;4.342;2022-07-06T03:07:21;6.20;;;3.07;;
17347;SDS011;8791;50.876;4.342;2022-07-06T03:09:48;11.97;;;3.50;;
17347;SDS011;8791;50.876;4.342;2022-07-06T03:12:15;7.70;;;3.23;;
17347;SDS011;8791;50.876;4.342;2022-07-06T03:14:42;11.50;;;3.90;;
17347;SDS011;8791;50.876;4.342;2022-07-06T03:17:09;5.50;;;3.50;;
17347;SDS011;8791;50.876;4.342;2022-07-06T03:19:36;8.03;;;3.70;;
17347;SDS011;8791;50.876;4.342;2022-07-06T03:22:04;6.37;;;3.50;;
17347;SDS011;8791;50.876;4.342;2022-07-06T03:24:31;13.30;;;3.93;;
17347;SDS011;8791;50.876;4.342;2022-07-06T03:26:58;10.93;;;4.17;;
17347;SDS011;8791;50.876;4.342;2022-07-06T03:29:25;7.77;;;3.47;;
17347;SDS011;8791;50.876;4.342;2022-07-06T03:31:52;7.53;;;4.50;;
17347;SDS011;8791;50.876;4.342;2022-07-06T03:34:19;7.73;;;3.87;;
17347;SDS011;8791;50.876;4.342;2022-07-06T03:36:46;6.27;;;3.97;;
17347;SDS011;8791;50.876;4.342;2022-07-06T03:39:14;6.57;;;4.10;;
17347;SDS011;8791;50.876;4.342;2022-07-06T03:41:41;10.43;;;4.00;;
17347;SDS011;8791;50.876;4.342;2022-07-06T03:44:08;8.50;;;4.03;;
17347;SDS011;8791;50.876;4.342;2022-07-06T03:46:35;9.00;;;4.23;;
17347;SDS011;8791;50.876;4.342;2022-07-06T03:49:02;11.63;;;4.47;;
17347;SDS011;8791;50.876;4.342;2022-07-06T03:51:29;6.37;;;4.23;;
17347;SDS011;8791;50.876;4.342;2022-07-06T03:53:56;11.77;;;4.30;;
17347;SDS011;8791;50.876;4.342;2022-07-06T03:56:24;4.90;;;3.80;;
17347;SDS011;8791;50.876;4.342;2022-07-06T03:58:54;9.27;;;3.80;;
17347;SDS011;8791;50.876;4.342;2022-07-06T04:01:21;13.27;;;4.20;;
17347;SDS011;8791;50.876;4.342;2022-07-06T04:03:48;14.30;;;4.20;;
17347;SDS011;8791;50.876;4.342;2022-07-06T04:06:15;7.50;;;4.17;;
17347;SDS011;8791;50.876;4.342;2022-07-06T04:08:42;5.27;;;4.00;;
17347;SDS011;8791;50.876;4.342;2022-07-06T04:11:09;7.83;;;4.37;;
17347;SDS011;8791;50.876;4.342;2022-07-06T04:13:37;9.33;;;4.30;;
17347;SDS011;8791;50.876;4.342;2022-07-06T04:16:04;9.80;;;4.17;;
17347;SDS011;8791;50.876;4.342;2022-07-06T04:18:31;7.43;;;3.97;;
17347;SDS011;8791;50.876;4.342;2022-07-06T04:20:59;12.10;;;4.30;;
17347;SDS011;8791;50.876;4.342;2022-07-06T04:23:27;6.33;;;4.00;;
17347;SDS011;8791;50.876;4.342;2022-07-06T04:25:54;6.43;;;4.73;;
17347;SDS011;8791;50.876;4.342;2022-07-06T04:28:21;7.30;;;3.90;;
17347;SDS011;8791;50.876;4.342;2022-07-06T04:30:49;13.93;;;4.00;;
17347;SDS011;8791;50.876;4.342;2022-07-06T04:33:16;8.50;;;3.90;;
17347;SDS011;8791;50.876;4.342;2022-07-06T04:35:43;7.57;;;3.90;;
17347;SDS011;8791;50.876;4.342;2022-07-06T04:38:10;6.63;;;3.80;;
17347;SDS011;8791;50.876;4.342;2022-07-06T04:40:37;12.30;;;4.10;;
17347;SDS011;8791;50.876;4.342;2022-07-06T04:43:04;12.57;;;4.67;;
17347;SDS011;8791;50.876;4.342;2022-07-06T04:45:31;7.47;;;4.63;;
17347;SDS011;8791;50.876;4.342;2022-07-06T04:47:59;11.65;;;4.50;;
17347;SDS011;8791;50.876;4.342;2022-07-06T04:50:26;14.63;;;4.50;;
17347;SDS011;8791;50.876;4.342;2022-07-06T04:52:53;7.70;;;3.65;;
17347;SDS011;8791;50.876;4.342;2022-07-06T04:55:20;7.10;;;3.90;;
17347;SDS011;8791;50.876;4.342;2022-07-06T04:57:47;6.82;;;4.20;;
17347;SDS011;8791;50.876;4.342;2022-07-06T05:00:16;11.35;;;4.22;;
17347;SDS011;8791;50.876;4.342;2022-07-06T05:02:43;10.65;;;4.45;;
17347;SDS011;8791;50.876;4.342;2022-07-06T05:05:11;13.65;;;4.13;;
17347;SDS011;8791;50.876;4.342;2022-07-06T05:07:38;12.25;;;4.18;;
17347;SDS011;8791;50.876;4.342;2022-07-06T05:10:06;5.75;;;4.00;;
17347;SDS011;8791;50.876;4.342;2022-07-06T05:12:34;7.38;;;4.20;;
17347;SDS011;8791;50.876;4.342;2022-07-06T05:15:01;11.52;;;4.18;;
17347;SDS011;8791;50.876;4.342;2022-07-06T05:17:28;6.75;;;4.47;;
17347;SDS011;8791;50.876;4.342;2022-07-06T05:19:55;10.95;;;4.10;;
17347;SDS011;8791;50.876;4.342;2022-07-06T05:22:24;6.67;;;4.17;;
17347;SDS011;8791;50.876;4.342;2022-07-06T05:24:51;11.45;;;4.97;;
17347;SDS011;8791;50.876;4.342;2022-07-06T05:27:18;10.07;;;4.40;;
17347;SDS011;8791;50.876;4.342;2022-07-06T05:29:44;7.33;;;4.73;;
17347;SDS011;8791;50.876;4.342;2022-07-06T05:32:11;9.00;;;4.47;;
17347;SDS011;8791;50.876;4.342;2022-07-06T05:34:38;11.13;;;5.43;;
17347;SDS011;8791;50.876;4.342;2022-07-06T05:37:05;13.63;;;6.00;;
17347;SDS011;8791;50.876;4.342;2022-07-06T05:39:33;18.67;;;5.83;;
17347;SDS011;8791;50.876;4.342;2022-07-06T05:42:00;7.53;;;5.10;;
17347;SDS011;8791;50.876;4.342;2022-07-06T05:44:27;8.67;;;4.53;;
17347;SDS011;8791;50.876;4.342;2022-07-06T05:46:54;13.10;;;4.87;;
17347;SDS011;8791;50.876;4.342;2022-07-06T05:49:41;12.60;;;5.35;;
17347;SDS011;8791;50.876;4.342;2022-07-06T05:52:25;10.82;;;5.75;;
17347;SDS011;8791;50.876;4.342;2022-07-06T05:54:54;19.25;;;5.57;;
17347;SDS011;8791;50.876;4.342;2022-07-06T05:57:20;12.90;;;5.50;;
17347;SDS011;8791;50.876;4.342;2022-07-06T05:59:47;7.55;;;5.18;;
17347;SDS011;8791;50.876;4.342;2022-07-06T06:02:14;17.55;;;5.55;;
17347;SDS011;8791;50.876;4.342;2022-07-06T06:04:41;19.10;;;5.70;;
17347;SDS011;8791;50.876;4.342;2022-07-06T06:07:08;7.45;;;5.40;;
17347;SDS011;8791;50.876;4.342;2022-07-06T06:09:35;11.10;;;5.35;;
17347;SDS011;8791;50.876;4.342;2022-07-06T06:12:04;27.40;;;5.63;;
17347;SDS011;8791;50.876;4.342;2022-07-06T06:14:31;9.73;;;5.05;;
17347;SDS011;8791;50.876;4.342;2022-07-06T06:16:58;7.07;;;5.38;;
17347;SDS011;8791;50.876;4.342;2022-07-06T06:19:25;12.88;;;5.32;;
17347;SDS011;8791;50.876;4.342;2022-07-06T06:21:52;21.48;;;5.93;;
17347;SDS011;8791;50.876;4.342;2022-07-06T06:24:19;16.52;;;5.55;;
17347;SDS011;8791;50.876;4.342;2022-07-06T06:26:46;15.65;;;5.30;;
17347;SDS011;8791;50.876;4.342;2022-07-06T06:29:14;16.10;;;5.85;;
17347;SDS011;8791;50.876;4.342;2022-07-06T06:31:41;7.80;;;5.57;;
17347;SDS011;8791;50.876;4.342;2022-07-06T06:34:08;15.43;;;6.28;;
17347;SDS011;8791;50.876;4.342;2022-07-06T06:36:35;14.95;;;5.45;;
17347;SDS011;8791;50.876;4.342;2022-07-06T06:39:02;13.30;;;5.18;;
17347;SDS011;8791;50.876;4.342;2022-07-06T06:41:29;12.35;;;5.20;;
17347;SDS011;8791;50.876;4.342;2022-07-06T06:43:56;16.42;;;5.68;;
17347;SDS011;8791;50.876;4.342;2022-07-06T06:46:24;13.48;;;5.65;;
17347;SDS011;8791;50.876;4.342;2022-07-06T06:48:51;16.00;;;5.65;;
17347;SDS011;8791;50.876;4.342;2022-07-06T06:51:18;11.23;;;4.82;;
17347;SDS011;8791;50.876;4.342;2022-07-06T06:53:46;7.25;;;3.80;;
17347;SDS011;8791;50.876;4.342;2022-07-06T06:56:13;9.07;;;3.75;;
17347;SDS011;8791;50.876;4.342;2022-07-06T06:58:40;15.38;;;3.88;;
17347;SDS011;8791;50.876;4.342;2022-07-06T07:01:07;8.93;;;3.63;;
17347;SDS011;8791;50.876;4.342;2022-07-06T07:03:35;11.75;;;3.22;;
17347;SDS011;8791;50.876;4.342;2022-07-06T07:06:02;6.25;;;2.50;;
17347;SDS011;8791;50.876;4.342;2022-07-06T07:08:29;4.40;;;3.03;;
17347;SDS011;8791;50.876;4.342;2022-07-06T07:10:56;14.18;;;3.05;;
17347;SDS011;8791;50.876;4.342;2022-07-06T07:13:23;7.72;;;2.42;;
17347;SDS011;8791;50.876;4.342;2022-07-06T07:15:50;6.78;;;2.88;;
17347;SDS011;8791;50.876;4.342;2022-07-06T07:18:17;5.53;;;2.58;;
17347;SDS011;8791;50.876;4.342;2022-07-06T07:20:45;3.88;;;2.05;;
17347;SDS011;8791;50.876;4.342;2022-07-06T07:23:12;5.65;;;1.85;;
17347;SDS011;8791;50.876;4.342;2022-07-06T07:25:39;5.28;;;1.85;;
17347;SDS011;8791;50.876;4.342;2022-07-06T07:28:12;6.82;;;1.92;;
17347;SDS011;8791;50.876;4.342;2022-07-06T07:30:39;6.53;;;1.95;;
17347;SDS011;8791;50.876;4.342;2022-07-06T07:33:06;9.90;;;1.80;;
17347;SDS011;8791;50.876;4.342;2022-07-06T07:35:33;14.15;;;2.78;;
17347;SDS011;8791;50.876;4.342;2022-07-06T07:38:01;4.15;;;2.15;;
17347;SDS011;8791;50.876;4.342;2022-07-06T07:40:28;10.35;;;2.72;;
17347;SDS011;8791;50.876;4.342;2022-07-06T07:42:55;6.50;;;2.10;;
17347;SDS011;8791;50.876;4.342;2022-07-06T07:45:22;6.90;;;2.10;;
17347;SDS011;8791;50.876;4.342;2022-07-06T07:47:49;6.20;;;2.28;;
17347;SDS011;8791;50.876;4.342;2022-07-06T07:50:16;4.97;;;1.95;;
17347;SDS011;8791;50.876;4.342;2022-07-06T07:52:43;5.22;;;2.33;;
17347;SDS011;8791;50.876;4.342;2022-07-06T07:55:12;6.05;;;1.90;;
17347;SDS011;8791;50.876;4.342;2022-07-06T07:57:39;8.43;;;2.10;;
17347;SDS011;8791;50.876;4.342;2022-07-06T08:00:06;5.13;;;1.98;;
17347;SDS011;8791;50.876;4.342;2022-07-06T08:02:34;5.72;;;2.05;;
17347;SDS011;8791;50.876;4.342;2022-07-06T08:05:01;5.82;;;2.17;;
17347;SDS011;8791;50.876;4.342;2022-07-06T08:07:28;5.00;;;1.50;;
17347;SDS011;8791;50.876;4.342;2022-07-06T08:09:55;4.43;;;1.92;;
17347;SDS011;8791;50.876;4.342;2022-07-06T08:12:27;8.00;;;1.83;;
17347;SDS011;8791;50.876;4.342;2022-07-06T08:14:54;5.55;;;2.25;;
17347;SDS011;8791;50.876;4.342;2022-07-06T08:17:21;2.70;;;2.00;;
17347;SDS011;8791;50.876;4.342;2022-07-06T08:19:47;7.32;;;2.20;;
17347;SDS011;8791;50.876;4.342;2022-07-06T08:22:14;3.85;;;2.58;;
17347;SDS011;8791;50.876;4.342;2022-07-06T08:24:42;7.38;;;2.25;;
17347;SDS011;8791;50.876;4.342;2022-07-06T08:27:09;9.50;;;2.08;;
17347;SDS011;8791;50.876;4.342;2022-07-06T08:29:38;8.18;;;2.10;;
17347;SDS011;8791;50.876;4.342;2022-07-06T08:32:05;3.97;;;2.08;;
17347;SDS011;8791;50.876;4.342;2022-07-06T08:34:33;5.07;;;2.22;;
17347;SDS011;8791;50.876;4.342;2022-07-06T08:37:00;5.68;;;2.53;;
17347;SDS011;8791;50.876;4.342;2022-07-06T08:39:27;8.40;;;2.33;;
17347;SDS011;8791;50.876;4.342;2022-07-06T08:41:54;7.38;;;2.20;;
17347;SDS011;8791;50.876;4.342;2022-07-06T08:44:22;11.23;;;2.60;;
17347;SDS011;8791;50.876;4.342;2022-07-06T08:46:53;6.47;;;2.92;;
17347;SDS011;8791;50.876;4.342;2022-07-06T08:49:22;9.63;;;2.97;;
17347;SDS011;8791;50.876;4.342;2022-07-06T08:51:50;9.27;;;3.10;;
17347;SDS011;8791;50.876;4.342;2022-07-06T08:54:18;10.55;;;2.95;;
17347;SDS011;8791;50.876;4.342;2022-07-06T08:56:47;6.32;;;3.03;;
17347;SDS011;8791;50.876;4.342;2022-07-06T08:59:15;5.18;;;2.67;;
17347;SDS011;8791;50.876;4.342;2022-07-06T09:01:42;8.82;;;3.15;;
17347;SDS011;8791;50.876;4.342;2022-07-06T09:04:12;7.63;;;2.33;;
17347;SDS011;8791;50.876;4.342;2022-07-06T09:06:43;5.95;;;2.92;;
17347;SDS011;8791;50.876;4.342;2022-07-06T09:09:15;5.45;;;2.95;;
17347;SDS011;8791;50.876;4.342;2022-07-06T09:11:46;6.40;;;2.72;;
17347;SDS011;8791;50.876;4.342;2022-07-06T09:14:13;6.18;;;2.30;;
17347;SDS011;8791;50.876;4.342;2022-07-06T09:16:40;6.50;;;2.72;;
17347;SDS011;8791;50.876;4.342;2022-07-06T09:19:09;6.65;;;2.90;;
17347;SDS011;8791;50.876;4.342;2022-07-06T09:21:40;11.10;;;3.17;;
17347;SDS011;8791;50.876;4.342;2022-07-06T09:24:08;12.55;;;3.90;;
17347;SDS011;8791;50.876;4.342;2022-07-06T09:26:37;10.73;;;2.80;;
17347;SDS011;8791;50.876;4.342;2022-07-06T09:29:04;8.40;;;2.90;;
17347;SDS011;8791;50.876;4.342;2022-07-06T09:31:32;11.18;;;2.90;;
17347;SDS011;8791;50.876;4.342;2022-07-06T09:34:00;8.05;;;2.75;;
17347;SDS011;8791;50.876;4.342;2022-07-06T09:36:36;9.70;;;3.13;;
17347;SDS011;8791;50.876;4.342;2022-07-06T09:39:22;7.53;;;2.42;;
17347;SDS011;8791;50.876;4.342;2022-07-06T09:41:51;9.45;;;2.92;;
17347;SDS011;8791;50.876;4.342;2022-07-06T09:44:23;4.43;;;2.72;;
17347;SDS011;8791;50.876;4.342;2022-07-06T09:46:51;6.63;;;2.42;;
17347;SDS011;8791;50.876;4.342;2022-07-06T09:49:19;5.97;;;2.45;;
17347;SDS011;8791;50.876;4.342;2022-07-06T09:51:49;7.07;;;2.53;;
17347;SDS011;8791;50.876;4.342;2022-07-06T09:54:18;4.38;;;2.00;;
17347;SDS011;8791;50.876;4.342;2022-07-06T09:56:45;6.45;;;2.08;;
17347;SDS011;8791;50.876;4.342;2022-07-06T09:59:16;4.55;;;1.92;;
17347;SDS011;8791;50.876;4.342;2022-07-06T10:01:44;6.75;;;1.90;;
17347;SDS011;8791;50.876;4.342;2022-07-06T10:04:11;7.53;;;2.50;;
17347;SDS011;8791;50.876;4.342;2022-07-06T10:06:40;8.90;;;2.05;;
17347;SDS011;8791;50.876;4.342;2022-07-06T10:09:09;5.85;;;2.10;;
17347;SDS011;8791;50.876;4.342;2022-07-06T10:11:38;4.43;;;2.30;;
17347;SDS011;8791;50.876;4.342;2022-07-06T10:14:06;5.00;;;2.03;;
17347;SDS011;8791;50.876;4.342;2022-07-06T10:16:35;4.47;;;2.00;;
17347;SDS011;8791;50.876;4.342;2022-07-06T10:19:06;5.07;;;2.40;;
17347;SDS011;8791;50.876;4.342;2022-07-06T10:21:35;6.07;;;2.58;;
17347;SDS011;8791;50.876;4.342;2022-07-06T10:24:03;8.90;;;2.30;;
17347;SDS011;8791;50.876;4.342;2022-07-06T10:26:33;4.93;;;2.10;;
17347;SDS011;8791;50.876;4.342;2022-07-06T10:29:04;5.38;;;2.10;;
17347;SDS011;8791;50.876;4.342;2022-07-06T10:31:33;7.85;;;2.10;;
17347;SDS011;8791;50.876;4.342;2022-07-06T10:34:04;4.68;;;2.10;;
17347;SDS011;8791;50.876;4.342;2022-07-06T10:36:36;6.63;;;2.58;;
17347;SDS011;8791;50.876;4.342;2022-07-06T10:39:05;8.05;;;2.50;;
17347;SDS011;8791;50.876;4.342;2022-07-06T10:41:47;2.95;;;2.35;;
17347;SDS011;8791;50.876;4.342;2022-07-06T10:44:15;6.13;;;2.53;;
17347;SDS011;8791;50.876;4.342;2022-07-06T10:46:49;7.47;;;2.85;;
17347;SDS011;8791;50.876;4.342;2022-07-06T10:49:18;6.47;;;2.28;;
17347;SDS011;8791;50.876;4.342;2022-07-06T10:51:47;9.55;;;2.70;;
17347;SDS011;8791;50.876;4.342;2022-07-06T10:54:18;5.15;;;2.47;;
17347;SDS011;8791;50.876;4.342;2022-07-06T10:56:49;7.38;;;2.20;;
17347;SDS011;8791;50.876;4.342;2022-07-06T10:59:18;9.57;;;2.53;;
17347;SDS011;8791;50.876;4.342;2022-07-06T11:04:38;7.50;;;3.05;;
17347;SDS011;8791;50.876;4.342;2022-07-06T11:07:09;10.00;;;3.10;;
17347;SDS011;8791;50.876;4.342;2022-07-06T11:09:37;6.78;;;2.55;;
17347;SDS011;8791;50.876;4.342;2022-07-06T11:14:53;5.18;;;2.42;;
17347;SDS011;8791;50.876;4.342;2022-07-06T11:17:20;11.27;;;2.60;;
17347;SDS011;8791;50.876;4.342;2022-07-06T11:19:48;3.25;;;2.40;;
17347;SDS011;8791;50.876;4.342;2022-07-06T11:22:16;6.15;;;2.30;;
17347;SDS011;8791;50.876;4.342;2022-07-06T11:24:45;4.43;;;2.20;;
17347;SDS011;8791;50.876;4.342;2022-07-06T11:27:12;7.78;;;2.30;;
17347;SDS011;8791;50.876;4.342;2022-07-06T11:29:41;6.18;;;2.28;;
17347;SDS011;8791;50.876;4.342;2022-07-06T11:32:10;6.93;;;2.58;;
17347;SDS011;8791;50.876;4.342;2022-07-06T11:34:43;7.38;;;2.30;;
17347;SDS011;8791;50.876;4.342;2022-07-06T11:37:11;8.65;;;2.20;;
17347;SDS011;8791;50.876;4.342;2022-07-06T11:39:40;4.47;;;1.88;;
17347;SDS011;8791;50.876;4.342;2022-07-06T11:42:08;6.40;;;2.17;;
17347;SDS011;8791;50.876;4.342;2022-07-06T11:44:36;7.97;;;2.30;;
17347;SDS011;8791;50.876;4.342;2022-07-06T11:47:05;4.70;;;2.00;;
17347;SDS011;8791;50.876;4.342;2022-07-06T11:49:37;5.00;;;1.63;;
17347;SDS011;8791;50.876;4.342;2022-07-06T11:52:08;8.18;;;1.90;;
17347;SDS011;8791;50.876;4.342;2022-07-06T11:54:40;10.30;;;2.10;;
17347;SDS011;8791;50.876;4.342;2022-07-06T11:57:09;4.38;;;2.00;;
17347;SDS011;8791;50.876;4.342;2022-07-06T11:59:40;5.82;;;1.65;;
17347;SDS011;8791;50.876;4.342;2022-07-06T12:02:15;5.43;;;2.20;;
17347;SDS011;8791;50.876;4.342;2022-07-06T12:04:44;4.40;;;1.83;;
17347;SDS011;8791;50.876;4.342;2022-07-06T12:07:13;4.22;;;2.10;;
17347;SDS011;8791;50.876;4.342;2022-07-06T12:09:41;13.82;;;2.63;;
17347;SDS011;8791;50.876;4.342;2022-07-06T12:12:10;5.70;;;1.40;;
17347;SDS011;8791;50.876;4.342;2022-07-06T12:14:38;7.07;;;2.25;;
17347;SDS011;8791;50.876;4.342;2022-07-06T12:17:06;3.70;;;1.80;;
17347;SDS011;8791;50.876;4.342;2022-07-06T12:19:35;5.47;;;1.60;;
17347;SDS011;8791;50.876;4.342;2022-07-06T12:22:04;5.75;;;1.77;;
17347;SDS011;8791;50.876;4.342;2022-07-06T12:24:32;7.07;;;2.03;;
17347;SDS011;8791;50.876;4.342;2022-07-06T12:27:09;10.48;;;2.22;;
17347;SDS011;8791;50.876;4.342;2022-07-06T12:29:38;3.67;;;1.83;;
17347;SDS011;8791;50.876;4.342;2022-07-06T12:32:05;3.83;;;1.65;;
17347;SDS011;8791;50.876;4.342;2022-07-06T12:34:32;7.93;;;1.83;;
17347;SDS011;8791;50.876;4.342;2022-07-06T12:37:06;11.27;;;2.00;;
17347;SDS011;8791;50.876;4.342;2022-07-06T12:39:40;5.28;;;1.83;;
17347;SDS011;8791;50.876;4.342;2022-07-06T12:42:15;4.07;;;1.60;;
17347;SDS011;8791;50.876;4.342;2022-07-06T12:44:43;2.45;;;1.65;;
17347;SDS011;8791;50.876;4.342;2022-07-06T12:47:12;2.20;;;1.90;;
17347;SDS011;8791;50.876;4.342;2022-07-06T12:49:42;6.78;;;1.67;;
17347;SDS011;8791;50.876;4.342;2022-07-06T12:52:11;5.07;;;1.92;;
17347;SDS011;8791;50.876;4.342;2022-07-06T12:54:40;10.52;;;2.25;;
17347;SDS011;8791;50.876;4.342;2022-07-06T12:57:09;8.25;;;1.98;;
17347;SDS011;8791;50.876;4.342;2022-07-06T12:59:41;5.18;;;2.03;;
17347;SDS011;8791;50.876;4.342;2022-07-06T13:02:17;6.10;;;1.92;;
17347;SDS011;8791;50.876;4.342;2022-07-06T13:04:54;5.47;;;1.75;;
17347;SDS011;8791;50.876;4.342;2022-07-06T13:07:23;5.03;;;1.52;;
17347;SDS011;8791;50.876;4.342;2022-07-06T13:09:51;8.25;;;2.13;;
17347;SDS011;8791;50.876;4.342;2022-07-06T13:12:18;9.25;;;1.90;;
17347;SDS011;8791;50.876;4.342;2022-07-06T13:14:45;3.65;;;1.77;;
17347;SDS011;8791;50.876;4.342;2022-07-06T13:17:12;2.70;;;1.73;;
17347;SDS011;8791;50.876;4.342;2022-07-06T13:19:39;4.57;;;1.65;;
17347;SDS011;8791;50.876;4.342;2022-07-06T13:22:06;6.18;;;1.85;;
17347;SDS011;8791;50.876;4.342;2022-07-06T13:24:34;6.57;;;1.95;;
17347;SDS011;8791;50.876;4.342;2022-07-06T13:27:02;5.93;;;2.40;;
17347;SDS011;8791;50.876;4.342;2022-07-06T13:29:29;4.20;;;1.80;;
17347;SDS011;8791;50.876;4.342;2022-07-06T13:31:56;5.13;;;1.60;;
17347;SDS011;8791;50.876;4.342;2022-07-06T13:34:23;13.70;;;1.83;;
17347;SDS011;8791;50.876;4.342;2022-07-06T13:36:50;4.15;;;2.40;;
17347;SDS011;8791;50.876;4.342;2022-07-06T13:39:18;4.18;;;1.88;;
17347;SDS011;8791;50.876;4.342;2022-07-06T13:41:46;5.57;;;1.73;;
17347;SDS011;8791;50.876;4.342;2022-07-06T13:44:13;6.95;;;1.98;;
17347;SDS011;8791;50.876;4.342;2022-07-06T13:46:40;5.72;;;1.85;;
17347;SDS011;8791;50.876;4.342;2022-07-06T13:49:07;4.63;;;1.80;;
17347;SDS011;8791;50.876;4.342;2022-07-06T13:51:34;3.28;;;1.67;;
17347;SDS011;8791;50.876;4.342;2022-07-06T13:54:04;1.77;;;1.55;;
17347;SDS011;8791;50.876;4.342;2022-07-06T13:56:32;7.00;;;2.03;;
17347;SDS011;8791;50.876;4.342;2022-07-06T13:59:01;6.38;;;2.35;;
17347;SDS011;8791;50.876;4.342;2022-07-06T14:01:30;3.60;;;1.75;;
17347;SDS011;8791;50.876;4.342;2022-07-06T14:04:03;6.82;;;1.70;;
17347;SDS011;8791;50.876;4.342;2022-07-06T14:06:31;8.70;;;2.08;;
17347;SDS011;8791;50.876;4.342;2022-07-06T14:09:00;3.97;;;2.03;;
17347;SDS011;8791;50.876;4.342;2022-07-06T14:11:34;8.60;;;2.00;;
17347;SDS011;8791;50.876;4.342;2022-07-06T14:14:04;3.40;;;1.70;;
17347;SDS011;8791;50.876;4.342;2022-07-06T14:16:36;4.45;;;1.85;;
17347;SDS011;8791;50.876;4.342;2022-07-06T14:19:12;4.07;;;1.60;;
17347;SDS011;8791;50.876;4.342;2022-07-06T14:21:47;6.78;;;1.90;;
17347;SDS011;8791;50.876;4.342;2022-07-06T14:24:18;1.95;;;1.50;;
17347;SDS011;8791;50.876;4.342;2022-07-06T14:26:45;4.45;;;1.50;;
17347;SDS011;8791;50.876;4.342;2022-07-06T14:29:14;7.38;;;1.67;;
17347;SDS011;8791;50.876;4.342;2022-07-06T14:31:41;3.70;;;2.03;;
17347;SDS011;8791;50.876;4.342;2022-07-06T14:34:09;5.13;;;1.40;;
17347;SDS011;8791;50.876;4.342;2022-07-06T14:36:41;4.28;;;1.50;;
17347;SDS011;8791;50.876;4.342;2022-07-06T14:39:08;3.53;;;1.67;;
17347;SDS011;8791;50.876;4.342;2022-07-06T14:41:37;5.13;;;1.67;;
17347;SDS011;8791;50.876;4.342;2022-07-06T14:44:04;4.90;;;1.60;;
17347;SDS011;8791;50.876;4.342;2022-07-06T14:46:35;5.85;;;1.58;;
17347;SDS011;8791;50.876;4.342;2022-07-06T14:49:02;4.80;;;1.30;;
17347;SDS011;8791;50.876;4.342;2022-07-06T14:51:29;3.88;;;1.80;;
17347;SDS011;8791;50.876;4.342;2022-07-06T14:54:00;6.65;;;1.90;;
17347;SDS011;8791;50.876;4.342;2022-07-06T14:56:27;2.60;;;1.63;;
17347;SDS011;8791;50.876;4.342;2022-07-06T14:58:54;1.67;;;1.45;;
17347;SDS011;8791;50.876;4.342;2022-07-06T15:01:21;1.70;;;1.45;;
17347;SDS011;8791;50.876;4.342;2022-07-06T15:03:52;7.53;;;2.15;;
17347;SDS011;8791;50.876;4.342;2022-07-06T15:06:21;3.10;;;1.42;;
17347;SDS011;8791;50.876;4.342;2022-07-06T15:08:48;6.10;;;1.95;;